Time;durP1;ratioP1;P1;durP2;ratioP2;P2;SDS_P1;SDS_P2;PMS_P1;PMS_P2;Temp;Humidity;BMP_temperature;BMP_pressure;BME280_temperature;BME280_humidity;BME280_pressure;Samples;Min_cycle;Max_cycle;Signal;HPM_P1;HPM_P2
2021/12/02 00:00:36;;;;;;;;;;;0.00;86.00;;;;;;5127695;27;19923;-76
2021/12/02 00:03:06;;;;;;;;;;;-0.10;86.00;;;;;;5126151;27;19942;-77
2021/12/02 00:05:34;;;;;;;;;;;0.00;86.10;;;;;;5142179;27;19923;-76
2021/12/02 00:08:01;;;;;;;;;;;-0.10;86.10;;;;;;5123899;27;19927;-76
2021/12/02 00:10:31;;;;;;;;;;;-0.20;86.30;;;;;;5133009;27;19927;-76
2021/12/02 00:13:00;;;;;;;;;;;-0.20;86.50;;;;;;5120600;27;19938;-76
2021/12/02 00:15:55;;;;;;;;;;;-0.10;86.50;;;;;;5148169;27;19938;-76
2021/12/02 00:21:05;;;;;;;;;;;0.00;86.20;;;;;;5137644;27;19923;-77
2021/12/02 00:23:37;;;;;;;;;;;-0.10;86.20;;;;;;5146283;27;19937;-77
2021/12/02 00:26:09;;;;;;;;;;;-0.10;86.30;;;;;;5128985;27;19931;-77
2021/12/02 00:28:38;;;;;;;;;;;-0.20;86.40;;;;;;5127628;27;19923;-75
2021/12/02 00:31:05;;;;;;;;;;;-0.20;86.60;;;;;;5134773;27;19934;-76
2021/12/02 00:33:33;;;;;;;;;;;-0.20;86.60;;;;;;5125042;27;20304;-75
2021/12/02 00:36:02;;;;;;;;;;;-0.20;86.60;;;;;;5124154;27;19939;-76
2021/12/02 00:38:29;;;;;;;;;;;-0.20;86.60;;;;;;5137953;27;19931;-75
2021/12/02 00:40:57;;;;;;;;;;;-0.20;86.70;;;;;;5133115;27;19927;-75
2021/12/02 00:43:24;;;;;;;;;;;-0.30;86.70;;;;;;5134087;27;19924;-76
2021/12/02 00:45:52;;;;;;;;;;;-0.30;86.80;;;;;;5145724;27;19927;-76
2021/12/02 00:48:19;;;;;;;;;;;-0.40;86.90;;;;;;5143609;27;20352;-76
2021/12/02 00:50:48;;;;;;;;;;;-0.50;87.00;;;;;;5126195;27;19923;-75
2021/12/02 00:53:19;;;;;;;;;;;-0.50;87.10;;;;;;5142958;27;19924;-76
2021/12/02 00:55:48;;;;;;;;;;;-0.60;87.20;;;;;;5124755;27;19924;-77
2021/12/02 00:58:19;;;;;;;;;;;-0.60;87.50;;;;;;5144107;27;19923;-76
2021/12/02 01:00:51;;;;;;;;;;;-0.60;87.60;;;;;;5145183;27;19923;-76
2021/12/02 01:03:20;;;;;;;;;;;-0.50;87.70;;;;;;5143492;27;19923;-77
2021/12/02 01:05:49;;;;;;;;;;;-0.50;87.70;;;;;;5143246;27;20415;-77
2021/12/02 01:08:18;;;;;;;;;;;-0.50;87.70;;;;;;5142076;27;19938;-77
2021/12/02 01:10:46;;;;;;;;;;;-0.50;87.70;;;;;;5125764;27;19949;-77
2021/12/02 01:13:13;;;;;;;;;;;-0.50;87.70;;;;;;5144319;27;19923;-77
2021/12/02 01:15:41;;;;;;;;;;;-0.60;87.80;;;;;;5142391;27;19930;-77
2021/12/02 01:18:08;;;;;;;;;;;-0.60;87.80;;;;;;5151302;27;19930;-77
2021/12/02 01:20:37;;;;;;;;;;;-0.60;87.90;;;;;;5148564;27;19930;-80
2021/12/02 01:23:06;;;;;;;;;;;-0.60;88.10;;;;;;5108532;27;19938;-80
2021/12/02 01:25:34;;;;;;;;;;;-0.60;88.10;;;;;;5143058;27;19923;-80
2021/12/02 01:28:02;;;;;;;;;;;-0.70;88.20;;;;;;5142847;27;20289;-84
2021/12/02 01:30:30;;;;;;;;;;;-0.60;88.40;;;;;;5142945;27;20297;-79
2021/12/02 01:33:02;;;;;;;;;;;-0.70;88.40;;;;;;5123185;27;19924;-79
2021/12/02 01:35:29;;;;;;;;;;;-0.60;88.40;;;;;;5145383;27;19923;-76
2021/12/02 01:37:57;;;;;;;;;;;-0.60;88.50;;;;;;5123082;27;19931;-76
2021/12/02 01:40:25;;;;;;;;;;;-0.60;88.50;;;;;;5126769;27;19923;-76
2021/12/02 01:42:54;;;;;;;;;;;-0.60;88.50;;;;;;5143550;27;19924;-76
2021/12/02 01:45:24;;;;;;;;;;;-0.60;88.50;;;;;;5136390;27;19923;-76
2021/12/02 01:47:53;;;;;;;;;;;-0.50;88.50;;;;;;5132697;27;20312;-76
2021/12/02 01:50:23;;;;;;;;;;;-0.50;88.40;;;;;;5135225;27;20292;-76
2021/12/02 01:52:55;;;;;;;;;;;-0.40;88.30;;;;;;5142669;27;19927;-75
2021/12/02 01:55:22;;;;;;;;;;;-0.40;88.30;;;;;;5141878;27;19934;-76
2021/12/02 01:58:04;;;;;;;;;;;-0.30;88.30;;;;;;5124331;27;19923;-76
2021/12/02 02:00:41;;;;;;;;;;;-0.20;88.20;;;;;;5143220;27;20300;-76
2021/12/02 02:03:13;;;;;;;;;;;-0.20;88.20;;;;;;5140522;27;19923;-76
2021/12/02 02:05:41;;;;;;;;;;;-0.10;88.20;;;;;;5141527;27;19923;-76
2021/12/02 02:08:12;;;;;;;;;;;0.00;88.00;;;;;;5142758;27;19927;-76
2021/12/02 02:10:40;;;;;;;;;;;0.00;87.90;;;;;;5121324;27;19923;-76
2021/12/02 02:13:10;;;;;;;;;;;0.00;87.70;;;;;;5124103;27;19923;-76
2021/12/02 02:15:38;;;;;;;;;;;0.10;87.70;;;;;;5144232;27;19931;-76
2021/12/02 02:20:49;;;;;;;;;;;0.20;87.40;;;;;;5127825;27;19930;-76
2021/12/02 02:23:17;;;;;;;;;;;0.30;87.20;;;;;;5146159;27;19923;-76
2021/12/02 02:25:46;;;;;;;;;;;0.40;87.10;;;;;;5145663;27;19923;-76
2021/12/02 02:28:14;;;;;;;;;;;0.40;87.00;;;;;;5112637;27;19923;-76
2021/12/02 02:30:41;;;;;;;;;;;0.50;86.90;;;;;;5127705;27;20292;-76
2021/12/02 02:33:13;;;;;;;;;;;0.50;86.70;;;;;;5145877;27;19934;-76
2021/12/02 02:35:43;;;;;;;;;;;0.60;86.50;;;;;;5128382;27;20515;-76
2021/12/02 02:38:10;;;;;;;;;;;0.70;86.50;;;;;;5145809;27;19934;-76
2021/12/02 02:40:40;;;;;;;;;;;0.60;86.50;;;;;;5145243;27;20415;-75
2021/12/02 02:43:09;;;;;;;;;;;0.70;86.50;;;;;;5127700;27;19923;-76
2021/12/02 02:45:37;;;;;;;;;;;0.60;86.60;;;;;;5118983;27;19930;-75
2021/12/02 02:48:05;;;;;;;;;;;0.70;86.40;;;;;;5122881;27;19923;-75
2021/12/02 02:50:32;;;;;;;;;;;0.70;86.40;;;;;;5157900;27;19934;-75
2021/12/02 02:53:05;;;;;;;;;;;0.70;86.30;;;;;;5141507;27;19931;-75
2021/12/02 02:55:34;;;;;;;;;;;0.80;86.30;;;;;;5136945;27;19934;-75
2021/12/02 03:00:57;;;;;;;;;;;0.80;86.10;;;;;;5137168;27;20086;-76
2021/12/02 03:06:33;;;;;;;;;;;0.80;86.00;;;;;;5136745;27;19923;-75
2021/12/02 03:08:53;;;;;;;;;;;0.90;85.90;;;;;;5133281;27;19923;-76
2021/12/02 03:11:21;;;;;;;;;;;0.90;85.80;;;;;;5137057;27;19923;-76
2021/12/02 03:13:53;;;;;;;;;;;1.00;85.80;;;;;;5117631;27;19924;-75
2021/12/02 03:16:43;;;;;;;;;;;0.90;85.80;;;;;;5136853;27;20296;-75
2021/12/02 03:19:11;;;;;;;;;;;1.00;85.80;;;;;;5136577;27;19947;-76
2021/12/02 03:21:39;;;;;;;;;;;0.90;85.90;;;;;;5147632;27;20376;-76
2021/12/02 03:24:06;;;;;;;;;;;1.00;85.90;;;;;;5137117;27;19924;-75
2021/12/02 03:26:34;;;;;;;;;;;1.00;85.90;;;;;;5149191;27;20315;-75
2021/12/02 03:29:02;;;;;;;;;;;1.10;85.90;;;;;;5128299;27;20495;-76
2021/12/02 03:31:30;;;;;;;;;;;1.20;85.80;;;;;;5118090;27;19924;-75
2021/12/02 03:33:58;;;;;;;;;;;1.20;85.90;;;;;;5136475;27;19946;-75
2021/12/02 03:36:25;;;;;;;;;;;1.20;86.00;;;;;;5118285;27;19924;-75
2021/12/02 03:38:53;;;;;;;;;;;1.20;86.00;;;;;;5118070;27;19927;-75
2021/12/02 03:41:21;;;;;;;;;;;1.10;86.20;;;;;;5153285;27;20392;-75
2021/12/02 03:43:50;;;;;;;;;;;1.10;86.30;;;;;;5152489;27;19930;-75
2021/12/02 03:46:21;;;;;;;;;;;1.00;86.50;;;;;;5155433;27;19924;-75
2021/12/02 03:48:53;;;;;;;;;;;1.00;86.70;;;;;;5154524;27;19923;-75
2021/12/02 03:51:23;;;;;;;;;;;1.00;87.00;;;;;;5135918;27;19928;-75
2021/12/02 03:53:51;;;;;;;;;;;1.00;87.00;;;;;;5135581;27;20353;-75
2021/12/02 03:56:20;;;;;;;;;;;1.00;87.10;;;;;;5144714;27;19930;-75
2021/12/02 03:58:49;;;;;;;;;;;1.10;87.20;;;;;;5148337;27;19946;-75
2021/12/02 04:01:20;;;;;;;;;;;1.10;87.30;;;;;;5143829;27;19922;-75
2021/12/02 04:03:52;;;;;;;;;;;1.10;87.30;;;;;;5156271;27;19923;-76
2021/12/02 04:06:23;;;;;;;;;;;1.10;87.40;;;;;;5154486;27;19930;-76
2021/12/02 04:09:02;;;;;;;;;;;1.10;87.40;;;;;;5144299;27;19938;-75
2021/12/02 04:11:44;;;;;;;;;;;1.00;87.50;;;;;;5137985;27;19923;-75
2021/12/02 04:14:25;;;;;;;;;;;1.00;87.80;;;;;;5136741;27;19924;-75
2021/12/02 04:17:04;;;;;;;;;;;0.90;88.10;;;;;;5134827;27;20506;-75
2021/12/02 04:19:32;;;;;;;;;;;0.80;88.20;;;;;;5117234;27;19924;-75
2021/12/02 04:22:05;;;;;;;;;;;0.80;88.20;;;;;;5117256;27;19927;-75
2021/12/02 04:24:35;;;;;;;;;;;0.80;88.30;;;;;;5117451;27;19930;-75
2021/12/02 04:27:03;;;;;;;;;;;0.80;88.40;;;;;;5147103;27;20300;-75
2021/12/02 04:29:31;;;;;;;;;;;0.70;88.50;;;;;;5135130;27;20403;-75
2021/12/02 04:31:58;;;;;;;;;;;0.60;88.70;;;;;;5142972;27;19937;-75
2021/12/02 04:34:26;;;;;;;;;;;0.60;88.80;;;;;;5155833;27;20384;-75
2021/12/02 04:36:53;;;;;;;;;;;0.50;88.90;;;;;;5129257;27;19996;-75
2021/12/02 04:39:20;;;;;;;;;;;0.50;89.00;;;;;;5117546;27;20304;-75
2021/12/02 04:41:48;;;;;;;;;;;0.40;89.00;;;;;;5117073;27;19930;-75
2021/12/02 04:44:18;;;;;;;;;;;0.30;89.20;;;;;;5147130;27;19923;-75
2021/12/02 04:46:46;;;;;;;;;;;0.30;89.40;;;;;;5154835;27;19923;-76
2021/12/02 04:49:13;;;;;;;;;;;0.30;89.40;;;;;;5131667;27;20423;-74
2021/12/02 04:51:41;;;;;;;;;;;0.30;89.50;;;;;;5150684;27;20292;-75
2021/12/02 04:54:09;;;;;;;;;;;0.30;89.70;;;;;;5123303;27;19930;-76
2021/12/02 04:56:37;;;;;;;;;;;0.30;89.80;;;;;;5146907;27;20375;-75
2021/12/02 04:59:04;;;;;;;;;;;0.30;89.80;;;;;;5132022;27;19924;-75
2021/12/02 05:01:32;;;;;;;;;;;0.40;89.70;;;;;;5147194;27;19923;-76
2021/12/02 05:03:59;;;;;;;;;;;0.50;89.60;;;;;;5155037;27;20291;-76
2021/12/02 05:06:27;;;;;;;;;;;0.50;89.50;;;;;;5154726;27;19923;-76
2021/12/02 05:08:54;;;;;;;;;;;0.50;89.30;;;;;;5135877;27;19931;-76
2021/12/02 05:11:21;;;;;;;;;;;0.50;89.30;;;;;;5125591;27;20030;-75
2021/12/02 05:13:49;;;;;;;;;;;0.50;89.20;;;;;;5143894;27;19923;-75
2021/12/02 05:16:16;;;;;;;;;;;0.50;89.10;;;;;;5145615;27;20402;-75
2021/12/02 05:18:43;;;;;;;;;;;0.50;89.20;;;;;;5154823;27;19983;-76
2021/12/02 05:21:11;;;;;;;;;;;0.50;89.10;;;;;;5145559;27;19923;-76
2021/12/02 05:23:38;;;;;;;;;;;0.50;89.10;;;;;;5151320;27;19930;-75
2021/12/02 05:26:05;;;;;;;;;;;0.50;89.10;;;;;;5146135;27;19927;-76
2021/12/02 05:28:33;;;;;;;;;;;0.50;89.00;;;;;;5119635;27;19930;-76
2021/12/02 05:31:00;;;;;;;;;;;0.50;89.00;;;;;;5154450;27;20403;-76
2021/12/02 05:33:28;;;;;;;;;;;0.50;89.00;;;;;;5154629;27;19934;-76
2021/12/02 05:35:55;;;;;;;;;;;0.40;89.00;;;;;;5120865;27;19924;-76
2021/12/02 05:38:22;;;;;;;;;;;0.40;89.10;;;;;;5135001;27;19928;-76
2021/12/02 05:40:50;;;;;;;;;;;0.50;89.10;;;;;;5115916;27;20303;-76
2021/12/02 05:43:17;;;;;;;;;;;0.50;89.10;;;;;;5136614;27;19923;-76
2021/12/02 05:45:45;;;;;;;;;;;0.50;89.00;;;;;;5133065;27;19927;-76
2021/12/02 05:48:12;;;;;;;;;;;0.50;89.00;;;;;;5133361;27;19927;-76
2021/12/02 05:50:41;;;;;;;;;;;0.50;88.90;;;;;;5138417;27;19930;-76
2021/12/02 05:53:08;;;;;;;;;;;0.60;88.80;;;;;;5154057;27;19923;-76
2021/12/02 05:55:36;;;;;;;;;;;0.60;88.70;;;;;;5145569;27;19931;-76
2021/12/02 05:58:03;;;;;;;;;;;0.50;88.60;;;;;;5145362;27;19930;-75
2021/12/02 06:00:30;;;;;;;;;;;0.50;88.70;;;;;;5151381;27;19923;-76
2021/12/02 06:02:58;;;;;;;;;;;0.50;88.80;;;;;;5115231;27;19930;-76
2021/12/02 06:05:26;;;;;;;;;;;0.50;88.80;;;;;;5133561;27;19923;-76
2021/12/02 06:07:57;;;;;;;;;;;0.50;88.70;;;;;;5145512;27;19981;-76
2021/12/02 06:10:25;;;;;;;;;;;0.60;88.60;;;;;;5134575;27;21168;-76
2021/12/02 06:12:53;;;;;;;;;;;0.60;88.60;;;;;;5148597;27;19923;-76
2021/12/02 06:15:21;;;;;;;;;;;0.50;88.40;;;;;;5140846;27;20364;-76
2021/12/02 06:17:48;;;;;;;;;;;0.50;88.30;;;;;;5152989;27;20399;-76
2021/12/02 06:20:19;;;;;;;;;;;0.50;88.00;;;;;;5116376;28;20300;-75
2021/12/02 06:22:47;;;;;;;;;;;0.60;87.70;;;;;;5130609;27;19924;-76
2021/12/02 06:27:43;;;;;;;;;;;0.50;87.20;;;;;;5148220;27;19923;-76
2021/12/02 06:30:11;;;;;;;;;;;0.50;87.10;;;;;;5133843;27;19923;-76
2021/12/02 06:32:38;;;;;;;;;;;0.50;87.10;;;;;;5120976;28;19928;-76
2021/12/02 06:35:06;;;;;;;;;;;0.50;87.30;;;;;;5151012;27;19926;-77
2021/12/02 06:37:35;;;;;;;;;;;0.50;87.50;;;;;;5135886;27;19927;-77
2021/12/02 06:40:03;;;;;;;;;;;0.50;87.60;;;;;;5150543;27;20311;-76
2021/12/02 06:42:30;;;;;;;;;;;0.50;87.60;;;;;;5151893;27;19932;-76
2021/12/02 06:44:58;;;;;;;;;;;0.60;87.50;;;;;;5142681;27;19923;-77
2021/12/02 06:47:31;;;;;;;;;;;0.60;87.20;;;;;;5143516;27;19931;-76
2021/12/02 06:50:01;;;;;;;;;;;0.60;87.00;;;;;;5116939;28;19938;-77
2021/12/02 06:52:29;;;;;;;;;;;0.60;86.80;;;;;;5152156;27;19923;-76
2021/12/02 06:54:57;;;;;;;;;;;0.60;86.50;;;;;;5149105;27;19930;-77
2021/12/02 06:57:27;;;;;;;;;;;0.70;86.30;;;;;;5114804;27;19923;-76
2021/12/02 06:59:54;;;;;;;;;;;0.70;86.20;;;;;;5132674;27;19931;-76
2021/12/02 07:02:22;;;;;;;;;;;0.70;86.10;;;;;;5130390;27;20506;-77
2021/12/02 07:04:50;;;;;;;;;;;0.70;85.90;;;;;;5136096;27;19930;-76
2021/12/02 07:07:17;;;;;;;;;;;0.70;85.50;;;;;;5136028;27;19923;-77
2021/12/02 07:09:45;;;;;;;;;;;0.70;85.00;;;;;;5129001;27;19927;-77
2021/12/02 07:12:12;;;;;;;;;;;0.80;84.60;;;;;;5142995;27;20404;-77
2021/12/02 07:14:45;;;;;;;;;;;0.80;84.50;;;;;;5156607;27;19930;-76
2021/12/02 07:17:12;;;;;;;;;;;0.70;84.30;;;;;;5116677;27;19930;-76
2021/12/02 07:19:40;;;;;;;;;;;0.70;84.20;;;;;;5128136;27;19930;-77
2021/12/02 07:22:08;;;;;;;;;;;0.70;84.10;;;;;;5133669;27;20307;-76
2021/12/02 07:24:35;;;;;;;;;;;0.60;83.90;;;;;;5157114;27;20296;-77
2021/12/02 07:27:06;;;;;;;;;;;0.60;83.90;;;;;;5153314;27;19942;-77
2021/12/02 07:29:33;;;;;;;;;;;0.50;83.90;;;;;;5150922;27;19924;-77
2021/12/02 07:32:02;;;;;;;;;;;0.50;84.00;;;;;;5149903;27;19923;-77
2021/12/02 07:34:33;;;;;;;;;;;0.40;84.00;;;;;;5145645;27;19930;-77
2021/12/02 07:37:01;;;;;;;;;;;0.40;84.00;;;;;;5133226;27;20303;-77
2021/12/02 07:39:28;;;;;;;;;;;0.40;84.10;;;;;;5118285;27;20384;-77
2021/12/02 07:41:56;;;;;;;;;;;0.30;84.00;;;;;;5106664;27;20371;-77
2021/12/02 07:44:24;;;;;;;;;;;0.30;83.80;;;;;;5129100;27;20323;-76
2021/12/02 07:46:52;;;;;;;;;;;0.30;83.70;;;;;;5130656;27;19946;-76
2021/12/02 07:49:19;;;;;;;;;;;0.30;83.30;;;;;;5135234;27;20395;-76
2021/12/02 07:51:49;;;;;;;;;;;0.30;82.70;;;;;;5156710;27;20576;-77
2021/12/02 07:54:17;;;;;;;;;;;0.30;82.40;;;;;;5149571;27;19924;-76
2021/12/02 07:56:46;;;;;;;;;;;0.30;82.00;;;;;;5142536;27;19930;-77
2021/12/02 07:59:17;;;;;;;;;;;0.30;81.80;;;;;;5152814;27;19923;-77
2021/12/02 08:01:44;;;;;;;;;;;0.30;81.30;;;;;;5146401;27;19930;-77
2021/12/02 08:04:12;;;;;;;;;;;0.30;81.30;;;;;;5153043;27;19930;-77
2021/12/02 08:06:40;;;;;;;;;;;0.30;81.10;;;;;;5127345;27;19930;-77
2021/12/02 08:09:12;;;;;;;;;;;0.30;80.80;;;;;;5154068;27;19923;-77
2021/12/02 08:11:39;;;;;;;;;;;0.30;80.60;;;;;;5127054;27;20380;-77
2021/12/02 08:14:12;;;;;;;;;;;0.30;80.50;;;;;;5147194;27;19923;-77
2021/12/02 08:16:40;;;;;;;;;;;0.30;80.00;;;;;;5138468;27;19931;-77
2021/12/02 08:19:07;;;;;;;;;;;0.30;80.00;;;;;;5143561;27;20280;-77
2021/12/02 08:21:35;;;;;;;;;;;0.30;80.00;;;;;;5131190;27;19923;-81
2021/12/02 08:24:02;;;;;;;;;;;0.30;80.00;;;;;;5144096;27;19923;-77
2021/12/02 08:26:30;;;;;;;;;;;0.30;80.00;;;;;;5137139;27;19924;-77
2021/12/02 08:28:58;;;;;;;;;;;0.30;79.70;;;;;;5134481;27;19923;-77
2021/12/02 08:31:26;;;;;;;;;;;0.30;79.70;;;;;;5117541;27;19924;-77
2021/12/02 08:33:54;;;;;;;;;;;0.30;79.80;;;;;;5117322;27;19930;-77
2021/12/02 08:36:25;;;;;;;;;;;0.30;79.70;;;;;;5117042;27;20384;-78
2021/12/02 08:38:52;;;;;;;;;;;0.30;79.80;;;;;;5135855;27;19931;-77
2021/12/02 08:41:21;;;;;;;;;;;0.30;79.90;;;;;;5136123;27;20337;-77
2021/12/02 08:43:48;;;;;;;;;;;0.30;79.80;;;;;;5136188;27;19924;-77
2021/12/02 08:46:18;;;;;;;;;;;0.30;79.80;;;;;;5135904;27;19923;-77
2021/12/02 08:48:48;;;;;;;;;;;0.30;79.90;;;;;;5135510;27;19923;-77
2021/12/02 08:51:15;;;;;;;;;;;0.30;79.80;;;;;;5135529;27;19931;-77
2021/12/02 08:53:42;;;;;;;;;;;0.30;79.80;;;;;;5134715;27;19924;-77
2021/12/02 08:56:10;;;;;;;;;;;0.30;79.70;;;;;;5135465;27;19930;-77
2021/12/02 08:58:38;;;;;;;;;;;0.40;79.40;;;;;;5117027;27;19931;-77
2021/12/02 09:01:05;;;;;;;;;;;0.50;79.50;;;;;;5115934;27;19924;-77
2021/12/02 09:03:38;;;;;;;;;;;0.60;79.20;;;;;;5134129;27;19927;-76
2021/12/02 09:06:10;;;;;;;;;;;0.60;79.10;;;;;;5134667;27;19923;-77
2021/12/02 09:08:39;;;;;;;;;;;0.60;79.10;;;;;;5134320;27;19931;-77
2021/12/02 09:11:06;;;;;;;;;;;0.60;79.30;;;;;;5135329;27;19927;-77
2021/12/02 09:13:33;;;;;;;;;;;0.60;79.50;;;;;;5117100;27;19930;-77
2021/12/02 09:16:01;;;;;;;;;;;0.50;79.60;;;;;;5135463;27;20419;-77
2021/12/02 09:18:28;;;;;;;;;;;0.60;79.60;;;;;;5135161;27;19924;-78
2021/12/02 09:20:55;;;;;;;;;;;0.60;79.70;;;;;;5116388;27;19923;-77
2021/12/02 09:23:23;;;;;;;;;;;0.60;79.50;;;;;;5134517;27;19947;-78
2021/12/02 09:25:50;;;;;;;;;;;0.60;79.50;;;;;;5134006;27;19924;-78
2021/12/02 09:28:18;;;;;;;;;;;0.70;79.60;;;;;;5132579;27;19927;-78
2021/12/02 09:30:46;;;;;;;;;;;0.70;79.60;;;;;;5116499;27;19930;-76
2021/12/02 09:33:14;;;;;;;;;;;0.70;79.60;;;;;;5133853;27;19923;-77
2021/12/02 09:35:41;;;;;;;;;;;0.70;79.70;;;;;;5115871;27;19923;-78
2021/12/02 09:38:10;;;;;;;;;;;0.70;79.50;;;;;;5134249;27;19923;-76
2021/12/02 09:40:39;;;;;;;;;;;0.80;79.60;;;;;;5134151;27;19934;-76
2021/12/02 09:43:07;;;;;;;;;;;0.80;79.60;;;;;;5134568;27;19935;-78
2021/12/02 09:45:35;;;;;;;;;;;0.80;79.50;;;;;;5099510;27;20392;-77
2021/12/02 09:48:02;;;;;;;;;;;0.80;79.40;;;;;;5134602;27;20288;-77
2021/12/02 09:50:36;;;;;;;;;;;0.90;79.10;;;;;;5134406;27;20303;-77
2021/12/02 09:53:12;;;;;;;;;;;0.90;79.10;;;;;;5134508;27;19923;-77
2021/12/02 09:58:11;;;;;;;;;;;1.00;79.20;;;;;;5133837;27;19935;-77
2021/12/02 10:00:47;;;;;;;;;;;1.00;79.20;;;;;;5115567;28;19927;-76
2021/12/02 10:03:28;;;;;;;;;;;1.10;79.20;;;;;;5134369;27;19923;-77
2021/12/02 10:06:21;;;;;;;;;;;1.10;79.00;;;;;;5134434;27;19923;-77
2021/12/02 10:08:53;;;;;;;;;;;1.20;78.90;;;;;;5130866;28;19993;-78
2021/12/02 10:11:27;;;;;;;;;;;1.20;78.70;;;;;;5133855;28;19935;-77
2021/12/02 10:14:00;;;;;;;;;;;1.30;78.60;;;;;;5116914;28;19931;-77
2021/12/02 10:16:32;;;;;;;;;;;1.30;78.40;;;;;;5117908;28;19942;-77
2021/12/02 10:21:54;;;;;;;;;;;1.40;78.10;;;;;;5115882;28;20289;-77
2021/12/02 10:24:23;;;;;;;;;;;1.40;78.00;;;;;;5115595;28;20296;-77
2021/12/02 10:26:59;;;;;;;;;;;1.50;78.00;;;;;;5134123;28;19930;-77
2021/12/02 10:29:47;;;;;;;;;;;1.60;77.80;;;;;;5134625;28;19924;-78
2021/12/02 10:32:21;;;;;;;;;;;1.70;77.50;;;;;;5133824;28;19928;-76
2021/12/02 10:34:54;;;;;;;;;;;1.70;77.20;;;;;;5094440;27;19931;-78
2021/12/02 10:37:27;;;;;;;;;;;1.80;77.40;;;;;;5105669;27;20383;-77
2021/12/02 10:40:02;;;;;;;;;;;1.80;77.60;;;;;;5153639;27;20284;-76
2021/12/02 10:42:31;;;;;;;;;;;1.80;77.40;;;;;;5121743;27;20303;-77
2021/12/02 10:45:01;;;;;;;;;;;1.90;77.00;;;;;;5136493;27;19927;-77
2021/12/02 10:47:29;;;;;;;;;;;1.90;76.70;;;;;;5136065;27;19927;-77
2021/12/02 10:50:09;;;;;;;;;;;2.00;76.70;;;;;;5137749;27;20431;-77
2021/12/02 10:52:37;;;;;;;;;;;2.10;76.70;;;;;;5124130;27;19923;-77
2021/12/02 10:55:05;;;;;;;;;;;2.20;76.30;;;;;;5156312;27;19924;-77
2021/12/02 10:57:33;;;;;;;;;;;2.20;76.10;;;;;;5137153;27;20375;-77
2021/12/02 11:00:04;;;;;;;;;;;2.30;76.00;;;;;;5155401;27;19927;-77
2021/12/02 11:02:35;;;;;;;;;;;2.30;76.10;;;;;;5155363;27;19930;-77
2021/12/02 11:05:05;;;;;;;;;;;2.40;75.80;;;;;;5157122;27;19931;-76
2021/12/02 11:07:33;;;;;;;;;;;2.50;75.70;;;;;;5143493;27;20299;-80
2021/12/02 11:10:04;;;;;;;;;;;2.60;75.20;;;;;;5108518;27;20526;-76
2021/12/02 11:12:36;;;;;;;;;;;2.70;74.80;;;;;;5139966;27;19923;-76
2021/12/02 11:15:06;;;;;;;;;;;2.70;74.10;;;;;;5145382;27;19931;-76
2021/12/02 11:17:39;;;;;;;;;;;2.80;73.80;;;;;;5143464;27;19927;-75
2021/12/02 11:20:08;;;;;;;;;;;2.80;74.00;;;;;;5125346;27;20465;-77
2021/12/02 11:22:35;;;;;;;;;;;2.90;73.70;;;;;;5126243;27;19927;-76
2021/12/02 11:25:06;;;;;;;;;;;2.90;72.90;;;;;;5143871;27;19938;-77
2021/12/02 11:27:38;;;;;;;;;;;3.10;73.10;;;;;;5124412;27;20316;-76
2021/12/02 11:30:10;;;;;;;;;;;3.30;72.60;;;;;;5143720;27;19927;-76
2021/12/02 11:32:51;;;;;;;;;;;3.60;72.70;;;;;;5145884;27;19934;-76
2021/12/02 11:35:22;;;;;;;;;;;3.90;71.50;;;;;;5127654;27;19934;-77
2021/12/02 11:38:10;;;;;;;;;;;4.20;70.70;;;;;;5142375;27;19927;-77
2021/12/02 11:40:39;;;;;;;;;;;4.50;70.80;;;;;;5142213;27;19926;-76
2021/12/02 11:43:07;;;;;;;;;;;4.80;70.30;;;;;;5127715;27;19963;-76
2021/12/02 11:45:42;;;;;;;;;;;5.20;70.10;;;;;;5145960;27;20368;-76
2021/12/02 11:48:11;;;;;;;;;;;5.40;67.90;;;;;;5146228;27;19931;-75
2021/12/02 11:50:39;;;;;;;;;;;5.60;67.80;;;;;;5143596;27;20328;-76
2021/12/02 11:53:07;;;;;;;;;;;5.70;65.00;;;;;;5152122;27;20375;-76
2021/12/02 11:55:38;;;;;;;;;;;5.80;64.50;;;;;;5136025;27;19927;-76
2021/12/02 11:58:06;;;;;;;;;;;5.90;64.30;;;;;;5124612;27;19934;-77
2021/12/02 12:00:34;;;;;;;;;;;6.00;63.00;;;;;;5149466;27;19930;-77
2021/12/02 12:03:12;;;;;;;;;;;6.00;63.30;;;;;;5144872;27;20406;-76
2021/12/02 12:05:41;;;;;;;;;;;6.20;62.00;;;;;;5145446;27;19932;-76
2021/12/02 12:08:09;;;;;;;;;;;6.20;60.80;;;;;;5128007;27;19927;-76
2021/12/02 12:10:38;;;;;;;;;;;6.30;60.40;;;;;;5094906;27;19930;-76
2021/12/02 12:13:20;;;;;;;;;;;6.30;60.00;;;;;;5146069;27;19923;-76
2021/12/02 12:15:57;;;;;;;;;;;6.30;59.10;;;;;;5134869;27;19923;-76
2021/12/02 12:18:27;;;;;;;;;;;6.40;58.70;;;;;;5144783;27;19923;-76
2021/12/02 12:20:57;;;;;;;;;;;6.50;59.10;;;;;;5137568;27;20398;-76
2021/12/02 12:23:33;;;;;;;;;;;6.60;59.70;;;;;;5154916;27;19923;-76
2021/12/02 12:26:12;;;;;;;;;;;6.80;59.60;;;;;;5123593;27;19924;-77
2021/12/02 12:28:59;;;;;;;;;;;7.00;57.80;;;;;;5144050;27;20390;-77
2021/12/02 12:31:27;;;;;;;;;;;7.00;57.90;;;;;;5146293;27;19945;-77
2021/12/02 12:33:54;;;;;;;;;;;7.10;56.90;;;;;;5143938;27;20608;-78
2021/12/02 12:36:41;;;;;;;;;;;7.10;55.30;;;;;;5127313;27;19923;-77
2021/12/02 12:39:19;;;;;;;;;;;7.10;55.30;;;;;;5143526;27;19927;-77
2021/12/02 12:42:15;;;;;;;;;;;7.10;55.90;;;;;;5148295;27;19931;-77
2021/12/02 12:44:47;;;;;;;;;;;7.30;55.50;;;;;;5118770;27;19924;-76
2021/12/02 12:47:16;;;;;;;;;;;7.40;54.30;;;;;;5139778;27;19931;-76
2021/12/02 12:49:45;;;;;;;;;;;7.50;54.80;;;;;;5125355;27;19924;-76
2021/12/02 12:52:17;;;;;;;;;;;7.60;53.90;;;;;;5148176;27;19931;-76
2021/12/02 12:55:03;;;;;;;;;;;7.40;53.40;;;;;;5124188;27;19923;-78
2021/12/02 12:57:31;;;;;;;;;;;7.20;54.30;;;;;;5146405;27;19931;-77
2021/12/02 12:59:59;;;;;;;;;;;6.80;54.50;;;;;;5118252;27;20289;-75
2021/12/02 13:02:30;;;;;;;;;;;6.40;55.20;;;;;;5155088;27;19923;-77
2021/12/02 13:04:59;;;;;;;;;;;6.00;55.80;;;;;;5155631;27;19923;-78
2021/12/02 13:07:41;;;;;;;;;;;5.60;56.70;;;;;;5157097;27;19946;-76
2021/12/02 13:10:12;;;;;;;;;;;5.30;57.80;;;;;;5155901;27;19923;-77
2021/12/02 13:12:46;;;;;;;;;;;5.10;58.60;;;;;;5154992;27;19952;-76
2021/12/02 13:15:18;;;;;;;;;;;4.80;58.30;;;;;;5156857;27;19923;-77
2021/12/02 13:17:57;;;;;;;;;;;4.70;59.20;;;;;;5157105;27;20295;-76
2021/12/02 13:20:30;;;;;;;;;;;4.50;59.70;;;;;;5155969;27;19923;-77
2021/12/02 13:23:12;;;;;;;;;;;4.30;60.10;;;;;;5156893;27;19930;-77
2021/12/02 13:25:45;;;;;;;;;;;4.30;60.50;;;;;;5155546;27;19927;-78
2021/12/02 13:28:17;;;;;;;;;;;4.20;61.10;;;;;;5156629;27;19930;-77
2021/12/02 13:30:56;;;;;;;;;;;4.20;61.60;;;;;;5137654;27;19930;-77
2021/12/02 13:33:36;;;;;;;;;;;4.20;62.30;;;;;;5137644;27;19923;-76
2021/12/02 13:36:04;;;;;;;;;;;4.20;62.50;;;;;;5136762;27;19930;-76
2021/12/02 13:38:31;;;;;;;;;;;4.10;63.00;;;;;;5137220;27;19923;-77
2021/12/02 13:41:12;;;;;;;;;;;4.20;63.50;;;;;;5155486;27;20364;-77
2021/12/02 13:43:50;;;;;;;;;;;4.20;63.90;;;;;;5157437;27;20399;-76
2021/12/02 13:46:17;;;;;;;;;;;4.30;64.10;;;;;;5137941;27;19923;-76
2021/12/02 13:48:55;;;;;;;;;;;4.30;64.10;;;;;;5156738;27;20395;-76
2021/12/02 13:54:38;;;;;;;;;;;4.20;64.80;;;;;;5149560;27;19923;-77
2021/12/02 13:57:22;;;;;;;;;;;4.20;64.90;;;;;;5136072;27;19923;-76
2021/12/02 13:59:50;;;;;;;;;;;4.20;64.50;;;;;;5155356;27;19924;-76
2021/12/02 14:02:18;;;;;;;;;;;4.30;64.20;;;;;;5135541;27;19923;-76
2021/12/02 14:04:46;;;;;;;;;;;4.30;63.90;;;;;;5132789;27;19927;-77
2021/12/02 14:07:19;;;;;;;;;;;4.30;64.10;;;;;;5133828;27;19923;-77
2021/12/02 14:09:51;;;;;;;;;;;4.30;63.60;;;;;;5133716;27;19935;-77
2021/12/02 14:12:21;;;;;;;;;;;4.40;63.90;;;;;;5133470;27;19927;-77
2021/12/02 14:14:55;;;;;;;;;;;4.30;64.10;;;;;;5134299;28;19930;-76
2021/12/02 14:17:22;;;;;;;;;;;4.30;64.20;;;;;;5133966;28;19935;-77
2021/12/02 14:20:19;;;;;;;;;;;4.30;64.30;;;;;;5134187;28;19930;-77
2021/12/02 14:22:49;;;;;;;;;;;4.30;64.30;;;;;;5120938;28;19931;-77
2021/12/02 14:25:16;;;;;;;;;;;4.20;64.80;;;;;;5133644;28;19924;-77
2021/12/02 14:27:44;;;;;;;;;;;4.10;65.00;;;;;;5133497;28;20369;-77
2021/12/02 14:30:16;;;;;;;;;;;4.00;65.10;;;;;;5116775;28;19934;-76
2021/12/02 14:32:45;;;;;;;;;;;4.00;65.20;;;;;;5133380;28;19924;-77
2021/12/02 14:35:14;;;;;;;;;;;3.90;65.10;;;;;;5134184;28;19923;-77
2021/12/02 14:37:43;;;;;;;;;;;3.80;65.40;;;;;;5132953;28;19931;-76
2021/12/02 14:40:12;;;;;;;;;;;3.80;65.70;;;;;;5134375;28;19931;-76
2021/12/02 14:42:40;;;;;;;;;;;3.80;65.70;;;;;;5133586;28;19930;-77
2021/12/02 14:45:20;;;;;;;;;;;3.70;65.80;;;;;;5114284;28;19930;-76
2021/12/02 14:47:48;;;;;;;;;;;3.70;66.00;;;;;;5132714;28;19928;-77
2021/12/02 14:50:16;;;;;;;;;;;3.60;66.10;;;;;;5134275;28;19924;-77
2021/12/02 14:52:48;;;;;;;;;;;3.50;66.20;;;;;;5133039;28;19924;-77
2021/12/02 14:55:22;;;;;;;;;;;3.50;66.40;;;;;;5133697;28;20288;-77
2021/12/02 14:57:49;;;;;;;;;;;3.50;66.50;;;;;;5115206;28;19931;-77
2021/12/02 15:00:18;;;;;;;;;;;3.40;66.40;;;;;;5135293;27;20296;-76
2021/12/02 15:02:46;;;;;;;;;;;3.30;66.70;;;;;;5131218;27;20312;-76
2021/12/02 15:05:22;;;;;;;;;;;3.30;67.00;;;;;;5119361;27;19923;-76
2021/12/02 15:07:52;;;;;;;;;;;3.30;67.20;;;;;;5144149;27;20395;-77